sensor_id;sensor_type;location;lat;lon;timestamp;P1;durP1;ratioP1;P2;durP2;ratioP2
20623;SDS011;10471;42.736;23.346;2023-02-28T00:00:24;60.27;;;30.83;;
20623;SDS011;10471;42.736;23.346;2023-02-28T00:02:50;45.83;;;25.03;;
20623;SDS011;10471;42.736;23.346;2023-02-28T00:05:17;43.37;;;24.07;;
20623;SDS011;10471;42.736;23.346;2023-02-28T00:07:44;42.17;;;23.73;;
20623;SDS011;10471;42.736;23.346;2023-02-28T00:10:11;51.30;;;26.87;;
20623;SDS011;10471;42.736;23.346;2023-02-28T00:12:38;44.23;;;24.27;;
20623;SDS011;10471;42.736;23.346;2023-02-28T00:15:05;41.57;;;24.07;;
20623;SDS011;10471;42.736;23.346;2023-02-28T00:17:31;46.37;;;23.47;;
20623;SDS011;10471;42.736;23.346;2023-02-28T00:19:56;72.40;;;31.50;;
20623;SDS011;10471;42.736;23.346;2023-02-28T00:22:26;42.87;;;23.03;;
20623;SDS011;10471;42.736;23.346;2023-02-28T00:24:52;40.63;;;21.97;;
20623;SDS011;10471;42.736;23.346;2023-02-28T00:27:17;92.67;;;37.63;;
20623;SDS011;10471;42.736;23.346;2023-02-28T00:29:42;43.93;;;23.00;;
20623;SDS011;10471;42.736;23.346;2023-02-28T00:32:08;40.40;;;21.67;;
20623;SDS011;10471;42.736;23.346;2023-02-28T00:34:33;44.03;;;22.03;;
20623;SDS011;10471;42.736;23.346;2023-02-28T00:37:03;73.13;;;35.17;;
20623;SDS011;10471;42.736;23.346;2023-02-28T00:39:36;94.87;;;45.27;;
20623;SDS011;10471;42.736;23.346;2023-02-28T00:42:02;123.93;;;46.47;;
20623;SDS011;10471;42.736;23.346;2023-02-28T00:44:28;79.90;;;35.37;;
20623;SDS011;10471;42.736;23.346;2023-02-28T00:46:54;87.63;;;37.30;;
20623;SDS011;10471;42.736;23.346;2023-02-28T00:49:21;243.90;;;120.03;;
20623;SDS011;10471;42.736;23.346;2023-02-28T00:51:47;96.47;;;44.40;;
20623;SDS011;10471;42.736;23.346;2023-02-28T00:54:12;140.20;;;59.63;;
20623;SDS011;10471;42.736;23.346;2023-02-28T00:56:38;126.47;;;54.53;;
20623;SDS011;10471;42.736;23.346;2023-02-28T00:59:04;102.60;;;49.40;;
20623;SDS011;10471;42.736;23.346;2023-02-28T01:01:29;85.03;;;42.83;;
20623;SDS011;10471;42.736;23.346;2023-02-28T01:03:54;50.80;;;26.43;;
20623;SDS011;10471;42.736;23.346;2023-02-28T01:06:20;49.80;;;26.20;;
20623;SDS011;10471;42.736;23.346;2023-02-28T01:08:45;44.40;;;24.37;;
20623;SDS011;10471;42.736;23.346;2023-02-28T01:11:11;46.33;;;24.13;;
20623;SDS011;10471;42.736;23.346;2023-02-28T01:13:40;42.43;;;24.23;;
20623;SDS011;10471;42.736;23.346;2023-02-28T01:16:06;42.80;;;22.63;;
20623;SDS011;10471;42.736;23.346;2023-02-28T01:18:31;44.27;;;24.70;;
20623;SDS011;10471;42.736;23.346;2023-02-28T01:20:57;47.57;;;25.20;;
20623;SDS011;10471;42.736;23.346;2023-02-28T01:23:23;46.53;;;24.43;;
20623;SDS011;10471;42.736;23.346;2023-02-28T01:25:49;42.67;;;23.33;;
20623;SDS011;10471;42.736;23.346;2023-02-28T01:28:16;44.73;;;23.97;;
20623;SDS011;10471;42.736;23.346;2023-02-28T01:30:41;49.50;;;24.73;;
20623;SDS011;10471;42.736;23.346;2023-02-28T01:33:07;46.87;;;23.63;;
20623;SDS011;10471;42.736;23.346;2023-02-28T01:35:33;45.57;;;24.83;;
20623;SDS011;10471;42.736;23.346;2023-02-28T01:37:59;44.03;;;24.90;;
20623;SDS011;10471;42.736;23.346;2023-02-28T01:40:24;49.50;;;25.10;;
20623;SDS011;10471;42.736;23.346;2023-02-28T01:42:50;57.67;;;28.10;;
20623;SDS011;10471;42.736;23.346;2023-02-28T01:47:54;54.17;;;28.03;;
20623;SDS011;10471;42.736;23.346;2023-02-28T01:50:26;58.20;;;30.10;;
20623;SDS011;10471;42.736;23.346;2023-02-28T01:52:55;55.87;;;27.80;;
20623;SDS011;10471;42.736;23.346;2023-02-28T01:55:25;53.63;;;27.13;;
20623;SDS011;10471;42.736;23.346;2023-02-28T01:57:55;53.00;;;26.63;;
20623;SDS011;10471;42.736;23.346;2023-02-28T02:00:23;50.57;;;26.40;;
20623;SDS011;10471;42.736;23.346;2023-02-28T02:02:53;55.77;;;27.43;;
20623;SDS011;10471;42.736;23.346;2023-02-28T02:05:24;48.93;;;24.80;;
20623;SDS011;10471;42.736;23.346;2023-02-28T02:07:54;55.67;;;27.70;;
20623;SDS011;10471;42.736;23.346;2023-02-28T02:10:30;54.07;;;26.97;;
20623;SDS011;10471;42.736;23.346;2023-02-28T02:32:28;60.80;;;28.80;;
20623;SDS011;10471;42.736;23.346;2023-02-28T02:37:36;59.77;;;29.27;;
20623;SDS011;10471;42.736;23.346;2023-02-28T02:40:22;62.00;;;29.43;;
20623;SDS011;10471;42.736;23.346;2023-02-28T02:42:54;55.00;;;27.80;;
20623;SDS011;10471;42.736;23.346;2023-02-28T02:45:31;58.20;;;28.63;;
20623;SDS011;10471;42.736;23.346;2023-02-28T02:48:03;53.83;;;27.83;;
20623;SDS011;10471;42.736;23.346;2023-02-28T02:50:54;74.63;;;34.07;;
20623;SDS011;10471;42.736;23.346;2023-02-28T02:53:23;63.17;;;28.03;;
20623;SDS011;10471;42.736;23.346;2023-02-28T02:55:55;55.33;;;26.00;;
20623;SDS011;10471;42.736;23.346;2023-02-28T02:58:22;57.17;;;29.43;;
20623;SDS011;10471;42.736;23.346;2023-02-28T03:00:53;58.20;;;27.10;;
20623;SDS011;10471;42.736;23.346;2023-02-28T03:03:21;56.97;;;27.80;;
20623;SDS011;10471;42.736;23.346;2023-02-28T03:05:54;57.80;;;27.73;;
20623;SDS011;10471;42.736;23.346;2023-02-28T03:08:20;66.97;;;34.37;;
20623;SDS011;10471;42.736;23.346;2023-02-28T03:10:48;72.53;;;34.13;;
20623;SDS011;10471;42.736;23.346;2023-02-28T03:16:06;53.30;;;27.40;;
20623;SDS011;10471;42.736;23.346;2023-02-28T03:26:26;44.23;;;22.40;;
20623;SDS011;10471;42.736;23.346;2023-02-28T03:29:55;41.27;;;23.63;;
20623;SDS011;10471;42.736;23.346;2023-02-28T03:31:58;43.07;;;23.33;;
20623;SDS011;10471;42.736;23.346;2023-02-28T03:34:48;42.40;;;22.63;;
20623;SDS011;10471;42.736;23.346;2023-02-28T03:37:23;42.87;;;22.67;;
20623;SDS011;10471;42.736;23.346;2023-02-28T03:40:01;42.00;;;21.93;;
20623;SDS011;10471;42.736;23.346;2023-02-28T03:42:39;40.53;;;22.30;;
20623;SDS011;10471;42.736;23.346;2023-02-28T03:45:11;44.23;;;22.73;;
20623;SDS011;10471;42.736;23.346;2023-02-28T03:47:44;41.77;;;22.03;;
20623;SDS011;10471;42.736;23.346;2023-02-28T03:50:16;39.20;;;21.83;;
20623;SDS011;10471;42.736;23.346;2023-02-28T03:53:31;39.17;;;21.57;;
20623;SDS011;10471;42.736;23.346;2023-02-28T03:55:34;36.47;;;21.60;;
20623;SDS011;10471;42.736;23.346;2023-02-28T03:58:12;40.83;;;21.57;;
20623;SDS011;10471;42.736;23.346;2023-02-28T04:00:48;37.97;;;22.30;;
20623;SDS011;10471;42.736;23.346;2023-02-28T04:03:19;42.63;;;22.13;;
20623;SDS011;10471;42.736;23.346;2023-02-28T04:05:49;38.83;;;22.27;;
20623;SDS011;10471;42.736;23.346;2023-02-28T04:08:17;40.33;;;21.30;;
20623;SDS011;10471;42.736;23.346;2023-02-28T04:10:43;35.23;;;20.10;;
20623;SDS011;10471;42.736;23.346;2023-02-28T04:13:15;35.90;;;19.67;;
20623;SDS011;10471;42.736;23.346;2023-02-28T04:15:41;31.00;;;18.50;;
20623;SDS011;10471;42.736;23.346;2023-02-28T04:18:06;40.30;;;20.60;;
20623;SDS011;10471;42.736;23.346;2023-02-28T04:20:32;34.97;;;20.13;;
20623;SDS011;10471;42.736;23.346;2023-02-28T04:22:57;40.67;;;19.70;;
20623;SDS011;10471;42.736;23.346;2023-02-28T04:25:22;70.60;;;27.50;;
20623;SDS011;10471;42.736;23.346;2023-02-28T04:27:48;58.73;;;23.90;;
20623;SDS011;10471;42.736;23.346;2023-02-28T04:30:13;55.03;;;25.30;;
20623;SDS011;10471;42.736;23.346;2023-02-28T04:32:39;64.53;;;27.20;;
20623;SDS011;10471;42.736;23.346;2023-02-28T04:35:04;56.13;;;25.43;;
20623;SDS011;10471;42.736;23.346;2023-02-28T04:37:30;67.67;;;27.97;;
20623;SDS011;10471;42.736;23.346;2023-02-28T04:39:59;58.07;;;26.07;;
20623;SDS011;10471;42.736;23.346;2023-02-28T04:42:25;81.20;;;32.37;;
20623;SDS011;10471;42.736;23.346;2023-02-28T04:44:51;99.07;;;35.37;;
20623;SDS011;10471;42.736;23.346;2023-02-28T04:47:17;100.37;;;30.87;;
20623;SDS011;10471;42.736;23.346;2023-02-28T04:49:42;117.43;;;30.20;;
20623;SDS011;10471;42.736;23.346;2023-02-28T04:52:07;92.07;;;27.63;;
20623;SDS011;10471;42.736;23.346;2023-02-28T04:54:34;113.90;;;30.70;;
20623;SDS011;10471;42.736;23.346;2023-02-28T04:57:00;138.40;;;31.30;;
20623;SDS011;10471;42.736;23.346;2023-02-28T04:59:26;129.90;;;30.23;;
20623;SDS011;10471;42.736;23.346;2023-02-28T05:01:52;133.23;;;30.40;;
20623;SDS011;10471;42.736;23.346;2023-02-28T05:04:17;102.50;;;30.67;;
20623;SDS011;10471;42.736;23.346;2023-02-28T05:06:43;146.23;;;29.60;;
20623;SDS011;10471;42.736;23.346;2023-02-28T05:09:08;194.73;;;33.07;;
20623;SDS011;10471;42.736;23.346;2023-02-28T05:11:36;149.97;;;34.27;;
20623;SDS011;10471;42.736;23.346;2023-02-28T05:14:04;110.17;;;31.70;;
20623;SDS011;10471;42.736;23.346;2023-02-28T05:16:32;128.40;;;31.83;;
20623;SDS011;10471;42.736;23.346;2023-02-28T05:18:58;148.90;;;32.20;;
20623;SDS011;10471;42.736;23.346;2023-02-28T05:24:06;158.10;;;32.07;;
20623;SDS011;10471;42.736;23.346;2023-02-28T05:26:35;111.37;;;28.40;;
20623;SDS011;10471;42.736;23.346;2023-02-28T05:29:04;303.63;;;33.43;;
20623;SDS011;10471;42.736;23.346;2023-02-28T05:31:30;239.97;;;31.93;;
20623;SDS011;10471;42.736;23.346;2023-02-28T05:33:56;119.93;;;28.17;;
20623;SDS011;10471;42.736;23.346;2023-02-28T05:36:22;363.60;;;35.23;;
20623;SDS011;10471;42.736;23.346;2023-02-28T05:38:49;116.10;;;28.50;;
20623;SDS011;10471;42.736;23.346;2023-02-28T05:41:15;156.00;;;33.37;;
20623;SDS011;10471;42.736;23.346;2023-02-28T05:43:42;109.53;;;32.63;;
20623;SDS011;10471;42.736;23.346;2023-02-28T05:46:08;118.57;;;35.10;;
20623;SDS011;10471;42.736;23.346;2023-02-28T05:48:36;98.07;;;31.13;;
20623;SDS011;10471;42.736;23.346;2023-02-28T05:51:03;101.37;;;29.93;;
20623;SDS011;10471;42.736;23.346;2023-02-28T05:53:29;104.30;;;33.23;;
20623;SDS011;10471;42.736;23.346;2023-02-28T05:55:56;88.73;;;32.20;;
20623;SDS011;10471;42.736;23.346;2023-02-28T05:58:22;112.37;;;34.37;;
20623;SDS011;10471;42.736;23.346;2023-02-28T06:00:48;78.63;;;31.13;;
20623;SDS011;10471;42.736;23.346;2023-02-28T06:03:14;97.87;;;32.80;;
20623;SDS011;10471;42.736;23.346;2023-02-28T06:05:39;96.93;;;27.77;;
20623;SDS011;10471;42.736;23.346;2023-02-28T06:08:04;89.93;;;29.37;;
20623;SDS011;10471;42.736;23.346;2023-02-28T06:10:32;95.07;;;30.33;;
20623;SDS011;10471;42.736;23.346;2023-02-28T06:13:01;102.37;;;29.10;;
20623;SDS011;10471;42.736;23.346;2023-02-28T06:15:28;93.93;;;29.93;;
20623;SDS011;10471;42.736;23.346;2023-02-28T06:17:54;103.43;;;30.20;;
20623;SDS011;10471;42.736;23.346;2023-02-28T06:20:21;88.30;;;27.90;;
20623;SDS011;10471;42.736;23.346;2023-02-28T06:22:47;85.67;;;29.60;;
20623;SDS011;10471;42.736;23.346;2023-02-28T06:25:13;71.87;;;28.37;;
20623;SDS011;10471;42.736;23.346;2023-02-28T06:27:38;65.73;;;28.73;;
20623;SDS011;10471;42.736;23.346;2023-02-28T06:30:04;64.40;;;29.63;;
20623;SDS011;10471;42.736;23.346;2023-02-28T06:32:29;70.40;;;30.70;;
20623;SDS011;10471;42.736;23.346;2023-02-28T06:34:55;68.17;;;31.17;;
20623;SDS011;10471;42.736;23.346;2023-02-28T06:37:22;66.27;;;29.30;;
20623;SDS011;10471;42.736;23.346;2023-02-28T06:39:51;53.27;;;26.67;;
20623;SDS011;10471;42.736;23.346;2023-02-28T06:42:16;54.60;;;26.43;;
20623;SDS011;10471;42.736;23.346;2023-02-28T06:44:42;59.93;;;27.93;;
20623;SDS011;10471;42.736;23.346;2023-02-28T06:47:08;49.67;;;25.27;;
20623;SDS011;10471;42.736;23.346;2023-02-28T06:49:34;51.03;;;26.53;;
20623;SDS011;10471;42.736;23.346;2023-02-28T06:52:01;46.57;;;24.60;;
20623;SDS011;10471;42.736;23.346;2023-02-28T06:54:26;49.93;;;25.30;;
20623;SDS011;10471;42.736;23.346;2023-02-28T06:56:52;51.13;;;27.27;;
20623;SDS011;10471;42.736;23.346;2023-02-28T06:59:19;50.63;;;26.67;;
20623;SDS011;10471;42.736;23.346;2023-02-28T07:01:45;51.90;;;26.73;;
20623;SDS011;10471;42.736;23.346;2023-02-28T07:04:11;50.03;;;25.23;;
20623;SDS011;10471;42.736;23.346;2023-02-28T07:06:38;44.63;;;24.37;;
20623;SDS011;10471;42.736;23.346;2023-02-28T07:09:03;43.50;;;23.80;;
20623;SDS011;10471;42.736;23.346;2023-02-28T07:11:29;46.93;;;26.03;;
20623;SDS011;10471;42.736;23.346;2023-02-28T07:13:55;44.97;;;25.37;;
20623;SDS011;10471;42.736;23.346;2023-02-28T07:16:21;40.83;;;24.10;;
20623;SDS011;10471;42.736;23.346;2023-02-28T07:18:47;37.33;;;23.43;;
20623;SDS011;10471;42.736;23.346;2023-02-28T07:21:13;40.17;;;23.13;;
20623;SDS011;10471;42.736;23.346;2023-02-28T07:23:39;37.57;;;23.17;;
20623;SDS011;10471;42.736;23.346;2023-02-28T07:26:05;38.47;;;22.67;;
20623;SDS011;10471;42.736;23.346;2023-02-28T07:28:31;42.87;;;22.67;;
20623;SDS011;10471;42.736;23.346;2023-02-28T07:31:02;41.10;;;23.77;;
20623;SDS011;10471;42.736;23.346;2023-02-28T07:33:29;39.10;;;24.33;;
20623;SDS011;10471;42.736;23.346;2023-02-28T07:35:59;41.57;;;23.77;;
20623;SDS011;10471;42.736;23.346;2023-02-28T07:38:28;38.13;;;23.00;;
20623;SDS011;10471;42.736;23.346;2023-02-28T07:40:53;39.07;;;23.67;;
20623;SDS011;10471;42.736;23.346;2023-02-28T07:43:19;39.20;;;23.37;;
20623;SDS011;10471;42.736;23.346;2023-02-28T07:45:44;39.00;;;22.50;;
20623;SDS011;10471;42.736;23.346;2023-02-28T07:48:09;36.33;;;22.30;;
20623;SDS011;10471;42.736;23.346;2023-02-28T07:50:35;37.67;;;23.27;;
20623;SDS011;10471;42.736;23.346;2023-02-28T07:53:00;42.77;;;24.63;;
20623;SDS011;10471;42.736;23.346;2023-02-28T07:55:26;51.37;;;29.47;;
20623;SDS011;10471;42.736;23.346;2023-02-28T07:57:52;53.00;;;30.67;;
20623;SDS011;10471;42.736;23.346;2023-02-28T08:00:17;59.20;;;31.43;;
20623;SDS011;10471;42.736;23.346;2023-02-28T08:02:43;48.67;;;28.63;;
20623;SDS011;10471;42.736;23.346;2023-02-28T08:05:08;52.97;;;31.17;;
20623;SDS011;10471;42.736;23.346;2023-02-28T08:07:34;57.27;;;33.67;;
20623;SDS011;10471;42.736;23.346;2023-02-28T08:09:59;65.97;;;36.93;;
20623;SDS011;10471;42.736;23.346;2023-02-28T08:12:25;58.67;;;34.40;;
20623;SDS011;10471;42.736;23.346;2023-02-28T08:14:51;59.73;;;34.07;;
20623;SDS011;10471;42.736;23.346;2023-02-28T08:17:16;55.47;;;31.70;;
20623;SDS011;10471;42.736;23.346;2023-02-28T08:19:41;52.87;;;31.57;;
20623;SDS011;10471;42.736;23.346;2023-02-28T08:22:07;54.87;;;31.37;;
20623;SDS011;10471;42.736;23.346;2023-02-28T08:24:32;52.83;;;29.43;;
20623;SDS011;10471;42.736;23.346;2023-02-28T08:26:58;56.83;;;31.50;;
20623;SDS011;10471;42.736;23.346;2023-02-28T08:29:23;59.43;;;32.80;;
20623;SDS011;10471;42.736;23.346;2023-02-28T08:31:49;49.13;;;27.70;;
20623;SDS011;10471;42.736;23.346;2023-02-28T08:34:15;56.07;;;31.03;;
20623;SDS011;10471;42.736;23.346;2023-02-28T08:36:41;53.33;;;29.10;;
20623;SDS011;10471;42.736;23.346;2023-02-28T08:39:09;46.70;;;27.47;;
20623;SDS011;10471;42.736;23.346;2023-02-28T08:41:35;48.37;;;28.03;;
20623;SDS011;10471;42.736;23.346;2023-02-28T08:44:00;46.03;;;27.67;;
20623;SDS011;10471;42.736;23.346;2023-02-28T08:46:26;46.50;;;26.87;;
20623;SDS011;10471;42.736;23.346;2023-02-28T08:48:52;47.83;;;27.10;;
20623;SDS011;10471;42.736;23.346;2023-02-28T08:51:19;45.67;;;28.03;;
20623;SDS011;10471;42.736;23.346;2023-02-28T08:53:54;53.83;;;29.33;;
20623;SDS011;10471;42.736;23.346;2023-02-28T08:56:23;54.27;;;29.07;;
20623;SDS011;10471;42.736;23.346;2023-02-28T08:58:49;52.67;;;28.40;;
20623;SDS011;10471;42.736;23.346;2023-02-28T09:01:16;51.00;;;27.47;;
20623;SDS011;10471;42.736;23.346;2023-02-28T09:03:44;51.67;;;27.27;;
20623;SDS011;10471;42.736;23.346;2023-02-28T09:06:11;52.73;;;25.73;;
20623;SDS011;10471;42.736;23.346;2023-02-28T09:08:37;50.73;;;24.20;;
20623;SDS011;10471;42.736;23.346;2023-02-28T09:11:03;46.20;;;24.80;;
20623;SDS011;10471;42.736;23.346;2023-02-28T09:13:29;44.60;;;23.30;;
20623;SDS011;10471;42.736;23.346;2023-02-28T09:15:57;45.63;;;23.00;;
20623;SDS011;10471;42.736;23.346;2023-02-28T09:18:23;41.33;;;21.90;;
20623;SDS011;10471;42.736;23.346;2023-02-28T09:20:49;48.10;;;22.33;;
20623;SDS011;10471;42.736;23.346;2023-02-28T09:23:15;33.63;;;20.20;;
20623;SDS011;10471;42.736;23.346;2023-02-28T09:25:48;38.37;;;20.07;;
20623;SDS011;10471;42.736;23.346;2023-02-28T09:28:15;36.97;;;20.73;;
20623;SDS011;10471;42.736;23.346;2023-02-28T09:30:42;37.17;;;18.90;;
20623;SDS011;10471;42.736;23.346;2023-02-28T09:33:09;38.13;;;19.83;;
20623;SDS011;10471;42.736;23.346;2023-02-28T09:35:34;35.97;;;20.73;;
20623;SDS011;10471;42.736;23.346;2023-02-28T09:38:02;33.43;;;18.73;;
20623;SDS011;10471;42.736;23.346;2023-02-28T09:40:27;33.77;;;17.57;;
20623;SDS011;10471;42.736;23.346;2023-02-28T09:42:54;28.27;;;17.43;;
20623;SDS011;10471;42.736;23.346;2023-02-28T09:45:39;32.43;;;16.80;;
20623;SDS011;10471;42.736;23.346;2023-02-28T09:50:50;30.93;;;15.13;;
20623;SDS011;10471;42.736;23.346;2023-02-28T09:53:22;32.10;;;16.53;;
20623;SDS011;10471;42.736;23.346;2023-02-28T09:55:58;35.07;;;17.23;;
20623;SDS011;10471;42.736;23.346;2023-02-28T09:58:28;32.83;;;16.33;;
20623;SDS011;10471;42.736;23.346;2023-02-28T10:01:43;30.30;;;16.77;;
20623;SDS011;10471;42.736;23.346;2023-02-28T10:04:16;29.13;;;16.03;;
20623;SDS011;10471;42.736;23.346;2023-02-28T10:06:45;29.30;;;15.77;;
20623;SDS011;10471;42.736;23.346;2023-02-28T10:11:47;36.00;;;17.83;;
20623;SDS011;10471;42.736;23.346;2023-02-28T10:14:16;32.13;;;16.40;;
20623;SDS011;10471;42.736;23.346;2023-02-28T10:19:46;27.40;;;15.50;;
20623;SDS011;10471;42.736;23.346;2023-02-28T10:25:20;27.27;;;15.10;;
20623;SDS011;10471;42.736;23.346;2023-02-28T10:27:47;25.40;;;14.27;;
20623;SDS011;10471;42.736;23.346;2023-02-28T10:30:12;26.67;;;15.47;;
20623;SDS011;10471;42.736;23.346;2023-02-28T10:32:43;26.13;;;15.13;;
20623;SDS011;10471;42.736;23.346;2023-02-28T10:37:46;25.50;;;15.47;;
20623;SDS011;10471;42.736;23.346;2023-02-28T10:43:18;28.13;;;14.30;;
20623;SDS011;10471;42.736;23.346;2023-02-28T10:45:39;30.00;;;15.67;;
20623;SDS011;10471;42.736;23.346;2023-02-28T10:48:29;33.30;;;16.93;;
20623;SDS011;10471;42.736;23.346;2023-02-28T10:51:19;29.17;;;15.70;;
20623;SDS011;10471;42.736;23.346;2023-02-28T10:53:48;28.43;;;15.70;;
20623;SDS011;10471;42.736;23.346;2023-02-28T10:56:22;28.60;;;15.03;;
20623;SDS011;10471;42.736;23.346;2023-02-28T10:59:23;30.50;;;15.40;;
20623;SDS011;10471;42.736;23.346;2023-02-28T11:01:47;31.33;;;16.17;;
20623;SDS011;10471;42.736;23.346;2023-02-28T11:07:00;26.87;;;14.60;;
20623;SDS011;10471;42.736;23.346;2023-02-28T11:09:50;29.77;;;14.73;;
20623;SDS011;10471;42.736;23.346;2023-02-28T11:12:21;28.97;;;14.20;;
20623;SDS011;10471;42.736;23.346;2023-02-28T11:14:51;31.83;;;14.87;;
20623;SDS011;10471;42.736;23.346;2023-02-28T11:17:23;33.13;;;15.67;;
20623;SDS011;10471;42.736;23.346;2023-02-28T11:19:52;33.43;;;15.70;;
20623;SDS011;10471;42.736;23.346;2023-02-28T11:22:27;30.80;;;15.83;;
20623;SDS011;10471;42.736;23.346;2023-02-28T11:24:59;28.13;;;15.30;;
20623;SDS011;10471;42.736;23.346;2023-02-28T11:29:55;30.13;;;14.23;;
20623;SDS011;10471;42.736;23.346;2023-02-28T11:32:24;31.47;;;15.43;;
20623;SDS011;10471;42.736;23.346;2023-02-28T11:37:34;30.70;;;15.27;;
20623;SDS011;10471;42.736;23.346;2023-02-28T11:39:59;30.90;;;15.77;;
20623;SDS011;10471;42.736;23.346;2023-02-28T11:56:37;23.30;;;14.00;;
20623;SDS011;10471;42.736;23.346;2023-02-28T12:04:34;28.20;;;14.07;;
20623;SDS011;10471;42.736;23.346;2023-02-28T12:07:08;34.30;;;13.80;;
20623;SDS011;10471;42.736;23.346;2023-02-28T12:18:14;28.47;;;14.70;;
20623;SDS011;10471;42.736;23.346;2023-02-28T12:20:54;23.40;;;12.30;;
20623;SDS011;10471;42.736;23.346;2023-02-28T12:31:36;27.70;;;12.57;;
20623;SDS011;10471;42.736;23.346;2023-02-28T12:34:08;26.73;;;12.13;;
20623;SDS011;10471;42.736;23.346;2023-02-28T12:36:37;24.13;;;13.20;;
20623;SDS011;10471;42.736;23.346;2023-02-28T12:39:14;21.23;;;11.63;;
20623;SDS011;10471;42.736;23.346;2023-02-28T12:44:20;26.67;;;12.40;;
20623;SDS011;10471;42.736;23.346;2023-02-28T12:46:54;24.67;;;11.83;;
20623;SDS011;10471;42.736;23.346;2023-02-28T12:49:25;25.77;;;12.80;;
20623;SDS011;10471;42.736;23.346;2023-02-28T12:51:56;25.67;;;13.00;;
20623;SDS011;10471;42.736;23.346;2023-02-28T12:57:27;27.13;;;13.13;;
20623;SDS011;10471;42.736;23.346;2023-02-28T12:59:58;22.17;;;12.67;;
20623;SDS011;10471;42.736;23.346;2023-02-28T13:10:56;28.37;;;13.93;;
20623;SDS011;10471;42.736;23.346;2023-02-28T13:13:26;25.63;;;12.50;;
20623;SDS011;10471;42.736;23.346;2023-02-28T13:15:58;27.50;;;12.47;;
20623;SDS011;10471;42.736;23.346;2023-02-28T13:21:09;21.80;;;12.57;;
20623;SDS011;10471;42.736;23.346;2023-02-28T13:26:20;26.73;;;12.10;;
20623;SDS011;10471;42.736;23.346;2023-02-28T13:31:20;34.07;;;14.03;;
20623;SDS011;10471;42.736;23.346;2023-02-28T13:49:30;25.77;;;12.80;;
20623;SDS011;10471;42.736;23.346;2023-02-28T13:54:39;22.40;;;11.60;;
20623;SDS011;10471;42.736;23.346;2023-02-28T14:07:23;30.00;;;12.20;;
20623;SDS011;10471;42.736;23.346;2023-02-28T14:10:39;24.93;;;11.47;;
20623;SDS011;10471;42.736;23.346;2023-02-28T14:15:54;28.37;;;12.27;;
20623;SDS011;10471;42.736;23.346;2023-02-28T14:18:41;25.37;;;12.63;;
20623;SDS011;10471;42.736;23.346;2023-02-28T14:21:20;24.67;;;12.70;;
20623;SDS011;10471;42.736;23.346;2023-02-28T14:29:43;30.90;;;13.63;;
20623;SDS011;10471;42.736;23.346;2023-02-28T14:32:28;24.23;;;13.70;;
20623;SDS011;10471;42.736;23.346;2023-02-28T14:35:03;29.43;;;13.60;;
20623;SDS011;10471;42.736;23.346;2023-02-28T14:37:42;24.43;;;13.07;;
20623;SDS011;10471;42.736;23.346;2023-02-28T14:40:15;27.73;;;13.97;;
20623;SDS011;10471;42.736;23.346;2023-02-28T14:42:54;25.47;;;12.43;;
20623;SDS011;10471;42.736;23.346;2023-02-28T14:45:21;26.83;;;13.33;;
20623;SDS011;10471;42.736;23.346;2023-02-28T14:47:49;27.93;;;12.67;;
20623;SDS011;10471;42.736;23.346;2023-02-28T14:50:17;24.50;;;13.90;;
20623;SDS011;10471;42.736;23.346;2023-02-28T14:52:47;22.23;;;12.67;;
20623;SDS011;10471;42.736;23.346;2023-02-28T14:55:18;20.37;;;13.13;;
20623;SDS011;10471;42.736;23.346;2023-02-28T14:57:56;25.77;;;13.60;;
20623;SDS011;10471;42.736;23.346;2023-02-28T15:02:54;25.30;;;13.23;;
20623;SDS011;10471;42.736;23.346;2023-02-28T15:05:25;24.20;;;12.43;;
20623;SDS011;10471;42.736;23.346;2023-02-28T15:08:06;22.60;;;13.10;;
20623;SDS011;10471;42.736;23.346;2023-02-28T15:10:40;22.93;;;13.37;;
20623;SDS011;10471;42.736;23.346;2023-02-28T15:13:15;24.90;;;13.43;;
20623;SDS011;10471;42.736;23.346;2023-02-28T15:18:43;22.50;;;13.27;;
20623;SDS011;10471;42.736;23.346;2023-02-28T15:21:06;18.03;;;12.13;;
20623;SDS011;10471;42.736;23.346;2023-02-28T15:23:36;20.90;;;12.30;;
20623;SDS011;10471;42.736;23.346;2023-02-28T15:26:02;21.67;;;12.70;;
20623;SDS011;10471;42.736;23.346;2023-02-28T15:28:29;27.33;;;13.60;;
20623;SDS011;10471;42.736;23.346;2023-02-28T15:30:57;31.50;;;15.37;;
20623;SDS011;10471;42.736;23.346;2023-02-28T15:33:27;25.80;;;13.53;;
20623;SDS011;10471;42.736;23.346;2023-02-28T15:36:13;20.07;;;12.80;;
20623;SDS011;10471;42.736;23.346;2023-02-28T15:38:42;19.30;;;12.33;;
20623;SDS011;10471;42.736;23.346;2023-02-28T15:41:22;24.63;;;13.10;;
20623;SDS011;10471;42.736;23.346;2023-02-28T15:43:57;25.10;;;14.57;;
20623;SDS011;10471;42.736;23.346;2023-02-28T15:49:26;25.80;;;14.40;;
20623;SDS011;10471;42.736;23.346;2023-02-28T15:51:53;22.23;;;14.30;;
20623;SDS011;10471;42.736;23.346;2023-02-28T15:54:33;29.17;;;16.40;;
20623;SDS011;10471;42.736;23.346;2023-02-28T15:57:06;31.17;;;21.33;;
20623;SDS011;10471;42.736;23.346;2023-02-28T15:59:35;68.97;;;44.20;;
20623;SDS011;10471;42.736;23.346;2023-02-28T16:07:39;39.93;;;22.60;;
20623;SDS011;10471;42.736;23.346;2023-02-28T16:10:06;21.60;;;13.23;;
20623;SDS011;10471;42.736;23.346;2023-02-28T16:12:35;19.60;;;10.30;;
20623;SDS011;10471;42.736;23.346;2023-02-28T16:15:05;22.30;;;9.90;;
20623;SDS011;10471;42.736;23.346;2023-02-28T16:17:35;19.83;;;10.13;;
20623;SDS011;10471;42.736;23.346;2023-02-28T16:20:13;17.67;;;10.23;;
20623;SDS011;10471;42.736;23.346;2023-02-28T16:22:41;20.60;;;10.30;;
20623;SDS011;10471;42.736;23.346;2023-02-28T16:25:10;19.90;;;10.57;;
20623;SDS011;10471;42.736;23.346;2023-02-28T16:27:37;22.37;;;10.87;;
20623;SDS011;10471;42.736;23.346;2023-02-28T16:30:03;16.90;;;9.00;;
20623;SDS011;10471;42.736;23.346;2023-02-28T16:32:30;18.10;;;8.23;;
20623;SDS011;10471;42.736;23.346;2023-02-28T16:34:59;19.47;;;10.73;;
20623;SDS011;10471;42.736;23.346;2023-02-28T16:37:26;14.23;;;8.70;;
20623;SDS011;10471;42.736;23.346;2023-02-28T16:39:52;10.07;;;5.87;;
20623;SDS011;10471;42.736;23.346;2023-02-28T16:44:48;8.90;;;4.30;;
20623;SDS011;10471;42.736;23.346;2023-02-28T16:47:14;7.77;;;4.43;;
20623;SDS011;10471;42.736;23.346;2023-02-28T16:49:40;15.87;;;9.00;;
20623;SDS011;10471;42.736;23.346;2023-02-28T16:52:08;14.60;;;8.07;;
20623;SDS011;10471;42.736;23.346;2023-02-28T16:54:35;14.33;;;7.43;;
20623;SDS011;10471;42.736;23.346;2023-02-28T16:57:00;15.30;;;7.40;;
20623;SDS011;10471;42.736;23.346;2023-02-28T16:59:29;12.13;;;7.00;;
20623;SDS011;10471;42.736;23.346;2023-02-28T17:01:55;11.57;;;6.37;;
20623;SDS011;10471;42.736;23.346;2023-02-28T17:04:26;10.93;;;6.60;;
20623;SDS011;10471;42.736;23.346;2023-02-28T17:06:52;12.63;;;6.27;;
20623;SDS011;10471;42.736;23.346;2023-02-28T17:09:19;11.17;;;6.90;;
20623;SDS011;10471;42.736;23.346;2023-02-28T17:11:47;11.57;;;6.70;;
20623;SDS011;10471;42.736;23.346;2023-02-28T17:14:14;13.53;;;6.60;;